createdAt,value
2022-08-09T00:06:17.446Z,22.40
2022-08-09T00:21:28.738Z,21.90
2022-08-09T00:36:36.646Z,21.30
2022-08-09T00:51:55.882Z,21.00
2022-08-09T01:07:16.461Z,21.00
2022-08-09T01:22:42.582Z,20.70
2022-08-09T01:38:07.968Z,20.50
2022-08-09T01:53:19.476Z,20.20
2022-08-09T02:08:39.841Z,20.10
2022-08-09T02:23:57.175Z,19.90
2022-08-09T02:39:07.569Z,19.70
2022-08-09T02:54:23.992Z,19.40
2022-08-09T03:09:33.681Z,19.10
2022-08-09T03:24:42.654Z,18.80
2022-08-09T03:39:58.468Z,18.50
2022-08-09T03:55:09.878Z,18.40
2022-08-09T04:10:20.527Z,18.20
2022-08-09T04:25:27.908Z,18.00
2022-08-09T04:40:47.463Z,18.00
2022-08-09T04:55:58.346Z,17.80
2022-08-09T05:11:07.514Z,17.80
2022-08-09T05:26:16.134Z,17.90
2022-08-09T05:41:40.052Z,18.30
2022-08-09T05:56:54.878Z,18.60
2022-08-09T06:12:01.555Z,18.90
2022-08-09T06:43:34.261Z,19.60
2022-08-09T07:00:51.714Z,20.20
2022-08-09T07:14:07.187Z,20.60
2022-08-09T07:29:16.080Z,21.20
2022-08-09T07:44:23.983Z,21.50
2022-08-09T07:59:52.168Z,22.00
2022-08-09T08:15:10.816Z,22.60
2022-08-09T08:30:23.256Z,23.20
2022-08-09T08:45:37.350Z,23.70
2022-08-09T09:00:45.744Z,24.30
2022-08-09T09:16:02.797Z,25.10
2022-08-09T09:31:17.511Z,25.50
2022-08-09T09:46:45.863Z,26.00
2022-08-09T10:02:02.555Z,26.50
2022-08-09T10:17:40.472Z,27.00
2022-08-09T10:32:48.524Z,27.30
2022-08-09T10:48:26.166Z,27.90
2022-08-09T11:03:51.438Z,28.20
2022-08-09T11:18:54.333Z,28.80
2022-08-09T11:34:07.765Z,29.30
2022-08-09T11:49:17.107Z,29.80
2022-08-09T12:04:37.328Z,30.40
2022-08-09T12:19:43.793Z,31.30
2022-08-09T12:34:49.955Z,32.80
2022-08-09T12:50:23.308Z,33.60
2022-08-09T13:05:52.339Z,35.60
2022-08-09T13:22:38.241Z,37.30
2022-08-09T13:36:47.829Z,36.60
2022-08-09T13:52:00.998Z,37.70
2022-08-09T14:07:07.195Z,39.50
2022-08-09T14:22:13.170Z,40.40
2022-08-09T14:37:20.148Z,40.80
2022-08-09T14:52:34.194Z,38.30
2022-08-09T15:07:45.318Z,38.40
2022-08-09T15:24:09.429Z,39.70
2022-08-09T15:38:33.007Z,40.70
2022-08-09T15:54:03.560Z,41.40
2022-08-09T16:09:05.071Z,41.70
2022-08-09T16:24:29.898Z,40.80
2022-08-09T16:39:48.120Z,40.30
2022-08-09T16:55:05.210Z,40.70
2022-08-09T17:10:17.846Z,41.10
2022-08-09T17:25:30.450Z,40.60
2022-08-09T17:40:39.699Z,40.80
2022-08-09T17:55:49.175Z,40.40
2022-08-09T18:11:01.846Z,39.70
2022-08-09T18:26:08.432Z,38.40
2022-08-09T18:41:16.404Z,36.40
2022-08-09T18:56:27.876Z,34.30
2022-08-09T19:11:38.253Z,32.40
2022-08-09T19:26:44.331Z,31.10
2022-08-09T19:41:58.546Z,30.30
2022-08-09T19:57:04.476Z,29.60
2022-08-09T20:12:27.084Z,28.90
2022-08-09T20:27:43.124Z,28.50
2022-08-09T20:42:59.364Z,27.80
2022-08-09T20:58:34.452Z,27.50
2022-08-09T21:14:01.469Z,27.20
2022-08-09T21:29:11.808Z,26.80
2022-08-09T21:44:34.455Z,26.40
2022-08-09T21:59:42.755Z,26.00
2022-08-09T22:14:49.270Z,25.50
2022-08-09T22:29:55.351Z,25.20
2022-08-09T22:48:16.878Z,24.90
2022-08-09T23:00:29.728Z,24.60
2022-08-09T23:15:35.510Z,24.40
2022-08-09T23:30:50.921Z,24.20
2022-08-09T23:45:57.873Z,23.90
